createdAt,value
2017-12-20T00:00:13.754Z,11.77
2017-12-20T00:01:20.379Z,11.88
2017-12-20T00:02:26.283Z,11.40
2017-12-20T00:03:32.104Z,12.63
2017-12-20T00:04:38.682Z,12.25
2017-12-20T00:05:44.430Z,12.27
2017-12-20T00:06:50.233Z,11.90
2017-12-20T00:07:55.993Z,12.52
2017-12-20T00:09:03.025Z,11.98
2017-12-20T00:10:08.787Z,12.15
2017-12-20T00:11:15.445Z,12.25
2017-12-20T00:12:21.768Z,11.95
2017-12-20T00:13:27.684Z,11.25
2017-12-20T00:14:33.531Z,12.23
2017-12-20T00:15:39.278Z,12.57
2017-12-20T00:16:45.016Z,11.82
2017-12-20T00:17:50.745Z,10.85
2017-12-20T00:18:56.204Z,12.88
2017-12-20T00:20:01.966Z,11.70
2017-12-20T00:21:07.699Z,11.30
2017-12-20T00:22:14.178Z,11.00
2017-12-20T00:23:19.929Z,12.15
2017-12-20T00:24:27.149Z,11.00
2017-12-20T00:25:32.922Z,11.40
2017-12-20T00:26:38.653Z,12.15
2017-12-20T00:27:44.397Z,11.70
2017-12-20T00:28:50.137Z,11.93
2017-12-20T00:29:55.863Z,12.50
2017-12-20T00:31:01.630Z,11.50
2017-12-20T00:32:07.381Z,12.35
2017-12-20T00:33:13.134Z,10.88
2017-12-20T00:34:18.873Z,10.75
2017-12-20T00:35:24.609Z,11.90
2017-12-20T00:36:30.395Z,11.48
2017-12-20T00:37:36.149Z,10.30
2017-12-20T00:38:41.916Z,11.50
2017-12-20T00:39:47.641Z,11.05
2017-12-20T00:40:53.497Z,11.52
2017-12-20T00:41:59.313Z,11.43
2017-12-20T00:43:05.088Z,12.37
2017-12-20T00:44:09.996Z,10.85
2017-12-20T00:45:15.729Z,10.63
2017-12-20T00:46:21.489Z,11.25
2017-12-20T00:47:27.252Z,10.55
2017-12-20T00:48:32.991Z,11.15
2017-12-20T00:49:38.780Z,10.90
2017-12-20T00:50:44.620Z,13.00
2017-12-20T00:51:50.372Z,10.57
2017-12-20T00:52:56.144Z,11.43
2017-12-20T00:54:01.880Z,10.95
2017-12-20T00:55:07.655Z,10.75
2017-12-20T00:56:13.409Z,10.13
2017-12-20T00:57:19.900Z,10.95
2017-12-20T00:58:25.671Z,10.98
2017-12-20T00:59:31.402Z,10.13
2017-12-20T01:00:36.929Z,11.38
2017-12-20T01:01:42.684Z,10.93
2017-12-20T01:02:48.538Z,10.20
2017-12-20T01:03:54.328Z,9.40
2017-12-20T01:05:00.813Z,9.65
2017-12-20T01:06:06.230Z,9.70
2017-12-20T01:07:11.634Z,10.20
2017-12-20T01:08:17.479Z,10.32
2017-12-20T01:09:24.029Z,10.93
2017-12-20T01:10:29.925Z,12.90
2017-12-20T01:11:35.657Z,10.45
2017-12-20T01:12:41.398Z,10.43
2017-12-20T01:13:47.147Z,10.63
2017-12-20T01:14:52.911Z,10.38
2017-12-20T01:15:58.684Z,8.85
2017-12-20T01:17:04.417Z,11.25
2017-12-20T01:18:10.148Z,10.35
2017-12-20T01:19:15.901Z,10.40
2017-12-20T01:20:21.665Z,9.93
2017-12-20T01:21:27.637Z,9.30
2017-12-20T01:22:33.366Z,9.43
2017-12-20T01:23:39.095Z,9.90
2017-12-20T01:24:45.621Z,10.00
2017-12-20T01:25:51.491Z,10.18
2017-12-20T01:26:58.017Z,10.32
2017-12-20T01:28:03.838Z,9.70
2017-12-20T01:29:09.591Z,9.10
2017-12-20T01:30:15.348Z,10.05
2017-12-20T01:31:21.118Z,8.68
2017-12-20T01:32:27.640Z,9.57
2017-12-20T01:33:33.393Z,9.18
2017-12-20T01:34:39.148Z,9.63
2017-12-20T01:35:45.679Z,10.13
2017-12-20T01:36:51.422Z,9.70
2017-12-20T01:37:57.168Z,9.13
2017-12-20T01:39:02.897Z,9.65
2017-12-20T01:40:08.652Z,9.25
2017-12-20T01:41:13.730Z,9.05
2017-12-20T01:42:18.845Z,9.27
2017-12-20T01:43:25.351Z,8.40
2017-12-20T01:44:31.094Z,9.18
2017-12-20T01:45:36.523Z,10.88
2017-12-20T01:46:42.255Z,10.32
2017-12-20T01:47:48.033Z,9.48
2017-12-20T01:48:54.549Z,8.75
2017-12-20T01:50:00.273Z,9.00
2017-12-20T01:51:05.348Z,9.35
2017-12-20T01:52:11.095Z,9.50
2017-12-20T01:53:16.868Z,9.82
2017-12-20T01:54:23.353Z,7.80
2017-12-20T01:55:29.320Z,9.23
2017-12-20T01:56:34.515Z,9.27
2017-12-20T01:57:39.911Z,9.13
2017-12-20T01:58:45.011Z,8.85
2017-12-20T01:59:50.732Z,8.98
2017-12-20T02:00:56.473Z,9.10
2017-12-20T02:02:02.202Z,9.27
2017-12-20T02:03:07.971Z,8.63
2017-12-20T02:04:13.748Z,9.85
2017-12-20T02:05:20.268Z,9.35
2017-12-20T02:06:25.993Z,9.45
2017-12-20T02:07:32.401Z,9.93
2017-12-20T02:08:38.154Z,10.43
2017-12-20T02:09:43.902Z,9.55
2017-12-20T02:10:50.422Z,9.45
2017-12-20T02:11:56.171Z,9.65
2017-12-20T02:13:01.897Z,9.48
2017-12-20T02:14:07.623Z,9.40
2017-12-20T02:15:13.388Z,9.38
2017-12-20T02:16:19.140Z,9.88
2017-12-20T02:17:24.869Z,9.55
2017-12-20T02:18:30.611Z,9.60
2017-12-20T02:19:35.696Z,8.80
2017-12-20T02:20:41.137Z,11.50
2017-12-20T02:21:46.255Z,10.35
2017-12-20T02:22:51.331Z,9.90
2017-12-20T02:23:56.744Z,9.88
2017-12-20T02:25:01.821Z,10.30
2017-12-20T02:26:08.345Z,9.65
2017-12-20T02:27:13.524Z,8.93
2017-12-20T02:28:18.593Z,9.82
2017-12-20T02:29:23.681Z,10.32
2017-12-20T02:30:28.749Z,11.23
2017-12-20T02:31:34.199Z,10.43
2017-12-20T02:32:40.060Z,10.35
2017-12-20T02:33:45.918Z,8.93
2017-12-20T02:34:51.339Z,10.43
2017-12-20T02:35:56.986Z,10.13
2017-12-20T02:37:02.447Z,10.25
2017-12-20T02:38:08.033Z,10.23
2017-12-20T02:39:13.120Z,9.65
2017-12-20T02:40:18.865Z,8.85
2017-12-20T02:41:24.260Z,10.93
2017-12-20T02:42:30.437Z,8.98
2017-12-20T02:43:35.276Z,10.07
2017-12-20T02:44:40.362Z,10.48
2017-12-20T02:45:46.114Z,9.90
2017-12-20T02:46:51.210Z,11.05
2017-12-20T02:47:56.458Z,9.40
2017-12-20T02:49:01.534Z,10.18
2017-12-20T02:50:06.622Z,9.85
2017-12-20T02:51:12.272Z,9.07
2017-12-20T02:52:17.354Z,9.70
2017-12-20T02:53:22.999Z,12.40
2017-12-20T02:54:28.310Z,11.30
2017-12-20T02:55:34.478Z,10.60
2017-12-20T02:56:40.642Z,11.45
2017-12-20T02:57:45.717Z,12.75
2017-12-20T02:58:50.814Z,10.73
2017-12-20T02:59:56.249Z,11.80
2017-12-20T03:01:01.993Z,11.12
2017-12-20T03:02:07.419Z,10.35
2017-12-20T03:03:12.513Z,11.63
2017-12-20T03:04:18.395Z,12.82
2017-12-20T03:05:24.162Z,11.82
2017-12-20T03:06:29.565Z,12.45
2017-12-20T03:07:34.988Z,10.73
2017-12-20T03:08:40.385Z,12.63
2017-12-20T03:09:45.956Z,12.60
2017-12-20T03:10:51.026Z,11.98
2017-12-20T03:11:56.107Z,13.52
2017-12-20T03:13:01.176Z,13.00
2017-12-20T03:14:06.025Z,14.27
2017-12-20T03:15:10.907Z,13.30
2017-12-20T03:16:16.312Z,13.50
2017-12-20T03:17:22.045Z,13.07
2017-12-20T03:18:27.808Z,14.05
2017-12-20T03:19:33.563Z,14.40
2017-12-20T03:20:39.322Z,13.43
2017-12-20T03:21:45.053Z,14.02
2017-12-20T03:22:50.476Z,15.63
2017-12-20T03:23:56.226Z,14.32
2017-12-20T03:25:01.960Z,19.02
2017-12-20T03:26:07.711Z,13.95
2017-12-20T03:27:13.468Z,15.00
2017-12-20T03:28:19.207Z,14.73
2017-12-20T03:29:24.952Z,16.45
2017-12-20T03:30:30.696Z,15.02
2017-12-20T03:31:36.470Z,17.25
2017-12-20T03:32:43.197Z,15.68
2017-12-20T03:33:48.921Z,15.93
2017-12-20T03:34:54.652Z,14.38
2017-12-20T03:36:00.395Z,15.50
2017-12-20T03:37:06.170Z,17.05
2017-12-20T03:38:11.589Z,17.30
2017-12-20T03:39:17.317Z,16.62
2017-12-20T03:40:23.040Z,16.50
2017-12-20T03:41:28.787Z,17.58
2017-12-20T03:42:34.545Z,17.55
2017-12-20T03:43:40.284Z,18.20
2017-12-20T03:44:46.031Z,19.30
2017-12-20T03:45:51.463Z,19.62
2017-12-20T03:46:57.011Z,16.75
2017-12-20T03:48:02.768Z,19.70
2017-12-20T03:49:09.281Z,19.92
2017-12-20T03:50:14.357Z,17.85
2017-12-20T03:51:20.520Z,19.23
2017-12-20T03:52:26.384Z,18.73
2017-12-20T03:53:31.481Z,19.87
2017-12-20T03:54:37.320Z,20.60
2017-12-20T03:55:42.411Z,18.15
2017-12-20T03:56:48.149Z,19.05
2017-12-20T03:57:53.882Z,20.83
2017-12-20T03:58:59.655Z,21.15
2017-12-20T04:00:05.386Z,22.25
2017-12-20T04:01:11.331Z,20.42
2017-12-20T04:02:17.942Z,20.23
2017-12-20T04:03:24.234Z,18.98
2017-12-20T04:04:30.059Z,18.37
2017-12-20T04:05:35.919Z,18.60
2017-12-20T04:06:41.649Z,19.50
2017-12-20T04:07:47.377Z,20.35
2017-12-20T04:08:53.225Z,18.52
2017-12-20T04:09:59.156Z,20.20
2017-12-20T04:11:04.949Z,19.33
2017-12-20T04:12:10.820Z,19.05
2017-12-20T04:13:17.333Z,20.37
2017-12-20T04:14:23.084Z,19.65
2017-12-20T04:15:28.867Z,20.02
2017-12-20T04:16:35.375Z,18.65
2017-12-20T04:17:41.109Z,19.02
2017-12-20T04:18:46.878Z,20.42
2017-12-20T04:19:52.609Z,22.67
2017-12-20T04:20:58.400Z,19.90
2017-12-20T04:22:04.138Z,20.40
2017-12-20T04:23:10.639Z,19.70
2017-12-20T04:24:16.415Z,20.08
2017-12-20T04:25:21.859Z,19.50
2017-12-20T04:26:28.406Z,20.17
2017-12-20T04:27:34.133Z,20.85
2017-12-20T04:28:39.883Z,19.92
2017-12-20T04:29:45.640Z,20.02
2017-12-20T04:30:52.140Z,21.87
2017-12-20T04:31:57.928Z,21.42
2017-12-20T04:33:03.691Z,21.30
2017-12-20T04:34:10.193Z,21.17
2017-12-20T04:35:15.921Z,21.15
2017-12-20T04:36:21.671Z,19.90
2017-12-20T04:37:27.472Z,18.87
2017-12-20T04:38:33.987Z,21.65
2017-12-20T04:39:40.069Z,20.48
2017-12-20T04:40:45.813Z,19.80
2017-12-20T04:41:51.566Z,21.73
2017-12-20T04:42:58.116Z,21.05
2017-12-20T04:44:03.849Z,20.08
2017-12-20T04:45:09.585Z,21.35
2017-12-20T04:46:15.331Z,21.62
2017-12-20T04:47:21.084Z,21.25
2017-12-20T04:48:27.622Z,21.25
2017-12-20T04:49:33.354Z,22.02
2017-12-20T04:50:39.099Z,19.65
2017-12-20T04:51:44.826Z,22.62
2017-12-20T04:52:50.576Z,20.62
2017-12-20T04:53:56.349Z,21.23
2017-12-20T04:55:02.870Z,21.45
2017-12-20T04:56:08.633Z,22.13
2017-12-20T04:57:14.405Z,23.12
2017-12-20T04:58:20.900Z,22.20
2017-12-20T04:59:26.732Z,21.02
2017-12-20T05:00:33.402Z,20.62
2017-12-20T05:01:39.155Z,21.10
2017-12-20T05:02:44.886Z,22.08
2017-12-20T05:03:50.640Z,19.52
2017-12-20T05:04:56.409Z,22.45
2017-12-20T05:06:02.158Z,21.75
2017-12-20T05:07:07.892Z,21.77
2017-12-20T05:08:13.623Z,21.83
2017-12-20T05:09:19.397Z,21.60
2017-12-20T05:10:25.939Z,20.88
2017-12-20T05:11:31.696Z,23.50
2017-12-20T05:12:37.428Z,21.20
2017-12-20T05:13:43.928Z,23.12
2017-12-20T05:14:49.660Z,22.25
2017-12-20T05:15:55.440Z,20.95
2017-12-20T05:17:01.174Z,20.65
2017-12-20T05:18:06.961Z,23.85
2017-12-20T05:19:13.456Z,21.52
2017-12-20T05:20:19.199Z,22.08
2017-12-20T05:21:24.963Z,21.67
2017-12-20T05:22:30.717Z,23.02
2017-12-20T05:23:36.445Z,22.85
2017-12-20T05:24:42.194Z,20.17
2017-12-20T05:25:47.928Z,21.27
2017-12-20T05:26:53.722Z,21.60
2017-12-20T05:27:59.467Z,20.75
2017-12-20T05:29:05.232Z,21.45
2017-12-20T05:30:10.981Z,22.27
2017-12-20T05:31:16.726Z,21.02
2017-12-20T05:32:22.626Z,22.05
2017-12-20T05:33:29.155Z,21.52
2017-12-20T05:34:35.960Z,22.27
2017-12-20T05:35:43.280Z,23.08
2017-12-20T05:36:49.116Z,23.50
2017-12-20T05:37:54.882Z,21.58
2017-12-20T05:39:00.635Z,22.00
2017-12-20T05:40:07.873Z,21.90
2017-12-20T05:41:13.608Z,21.70
2017-12-20T05:42:19.348Z,22.30
2017-12-20T05:43:25.136Z,22.65
2017-12-20T05:44:30.866Z,22.05
2017-12-20T05:45:36.605Z,21.45
2017-12-20T05:46:42.336Z,22.87
2017-12-20T05:47:48.083Z,22.55
2017-12-20T05:48:53.850Z,21.85
2017-12-20T05:50:00.354Z,22.42
2017-12-20T05:51:06.088Z,22.20
2017-12-20T05:52:11.829Z,22.00
2017-12-20T05:53:17.600Z,22.10
2017-12-20T05:54:23.413Z,23.60
2017-12-20T05:55:29.171Z,22.37
2017-12-20T05:56:34.902Z,23.08
2017-12-20T05:57:40.628Z,23.55
2017-12-20T05:58:46.395Z,20.52
2017-12-20T05:59:52.181Z,21.67
2017-12-20T06:00:58.684Z,22.20
2017-12-20T06:02:04.421Z,22.90
2017-12-20T06:03:10.176Z,21.55
2017-12-20T06:04:16.154Z,21.48
2017-12-20T06:05:21.938Z,22.15
2017-12-20T06:06:27.673Z,22.42
2017-12-20T06:07:33.409Z,22.98
2017-12-20T06:08:39.932Z,21.40
2017-12-20T06:09:45.679Z,22.23
2017-12-20T06:10:52.218Z,22.20
2017-12-20T06:11:58.024Z,20.95
2017-12-20T06:13:03.695Z,21.15
2017-12-20T06:14:09.453Z,21.23
2017-12-20T06:15:15.212Z,22.62
2017-12-20T06:16:20.996Z,21.90
2017-12-20T06:17:26.768Z,21.73
2017-12-20T06:18:32.523Z,21.90
2017-12-20T06:19:38.260Z,22.85
2017-12-20T06:20:44.026Z,22.45
2017-12-20T06:21:50.570Z,22.75
2017-12-20T06:22:56.319Z,22.30
2017-12-20T06:24:02.055Z,22.02
2017-12-20T06:25:07.855Z,22.00
2017-12-20T06:26:13.584Z,21.23
2017-12-20T06:27:19.338Z,22.00
2017-12-20T06:28:25.078Z,21.27
2017-12-20T06:29:30.813Z,22.45
2017-12-20T06:30:36.567Z,21.50
2017-12-20T06:31:42.320Z,20.48
2017-12-20T06:32:48.080Z,21.80
2017-12-20T06:33:53.644Z,21.08
2017-12-20T06:35:00.207Z,21.62
2017-12-20T06:36:06.704Z,22.30
2017-12-20T06:37:12.480Z,19.40
2017-12-20T06:38:18.312Z,20.98
2017-12-20T06:39:24.069Z,22.55
2017-12-20T06:40:30.060Z,19.35
2017-12-20T06:41:35.840Z,21.90
2017-12-20T06:42:41.586Z,21.98
2017-12-20T06:43:47.363Z,21.98
2017-12-20T06:44:53.874Z,21.65
2017-12-20T06:45:59.614Z,21.17
2017-12-20T06:47:05.372Z,24.67
2017-12-20T06:48:11.164Z,24.10
2017-12-20T06:49:16.950Z,21.95
2017-12-20T06:50:22.705Z,22.75
2017-12-20T06:51:29.216Z,22.83
2017-12-20T06:52:34.964Z,23.75
2017-12-20T06:53:40.724Z,22.00
2017-12-20T06:54:46.496Z,22.62
2017-12-20T06:55:52.245Z,24.60
2017-12-20T06:56:58.764Z,21.90
2017-12-20T06:58:04.503Z,21.45
2017-12-20T06:59:10.320Z,22.52
2017-12-20T07:00:16.102Z,22.60
2017-12-20T07:01:21.859Z,21.02
2017-12-20T07:02:27.594Z,19.62
2017-12-20T07:03:33.352Z,21.55
2017-12-20T07:04:39.092Z,21.92
2017-12-20T07:05:45.672Z,21.95
2017-12-20T07:06:51.418Z,21.83
2017-12-20T07:07:58.648Z,23.02
2017-12-20T07:09:03.724Z,21.15
2017-12-20T07:10:09.492Z,23.25
2017-12-20T07:11:15.287Z,22.75
2017-12-20T07:12:21.045Z,22.08
2017-12-20T07:13:26.899Z,20.98
2017-12-20T07:14:32.658Z,20.98
2017-12-20T07:15:38.407Z,22.27
2017-12-20T07:16:44.188Z,22.40
2017-12-20T07:17:49.921Z,20.15
2017-12-20T07:18:55.674Z,19.95
2017-12-20T07:20:01.435Z,23.15
2017-12-20T07:21:07.955Z,21.65
2017-12-20T07:22:13.722Z,23.45
2017-12-20T07:23:19.482Z,22.50
2017-12-20T07:24:25.242Z,23.40
2017-12-20T07:25:31.758Z,22.75
2017-12-20T07:26:37.554Z,22.05
2017-12-20T07:27:43.327Z,23.45
2017-12-20T07:28:49.054Z,23.27
2017-12-20T07:29:54.794Z,23.25
2017-12-20T07:31:00.555Z,22.83
2017-12-20T07:32:06.301Z,24.60
2017-12-20T07:33:12.075Z,24.55
2017-12-20T07:34:17.800Z,22.67
2017-12-20T07:35:23.221Z,23.45
2017-12-20T07:36:28.953Z,32.75
2017-12-20T07:37:34.708Z,30.83
2017-12-20T07:38:40.510Z,22.60
2017-12-20T07:39:46.304Z,29.50
2017-12-20T07:40:52.060Z,23.35
2017-12-20T07:41:58.595Z,22.92
2017-12-20T07:43:04.361Z,23.42
2017-12-20T07:44:10.952Z,22.98
2017-12-20T07:45:16.704Z,24.05
2017-12-20T07:46:22.476Z,23.35
2017-12-20T07:47:28.234Z,22.95
2017-12-20T07:48:33.992Z,22.95
2017-12-20T07:49:40.563Z,23.98
2017-12-20T07:50:46.328Z,24.30
2017-12-20T07:51:52.083Z,24.73
2017-12-20T07:52:57.853Z,21.85
2017-12-20T07:54:03.593Z,21.05
2017-12-20T07:55:09.349Z,27.17
2017-12-20T07:56:15.092Z,24.58
2017-12-20T07:57:20.817Z,24.15
2017-12-20T07:58:26.761Z,25.00
2017-12-20T07:59:32.320Z,24.90
2017-12-20T08:00:37.748Z,26.42
2017-12-20T08:01:43.492Z,26.23
2017-12-20T08:02:49.244Z,25.85
2017-12-20T08:03:55.744Z,27.92
2017-12-20T08:05:01.513Z,24.30
2017-12-20T08:06:07.265Z,24.05
2017-12-20T08:07:13.036Z,26.10
2017-12-20T08:08:18.806Z,23.17
2017-12-20T08:09:24.543Z,23.20
2017-12-20T08:10:30.290Z,23.90
2017-12-20T08:11:36.120Z,25.50
2017-12-20T08:12:41.862Z,24.65
2017-12-20T08:13:47.603Z,23.73
2017-12-20T08:14:53.364Z,22.55
2017-12-20T08:15:59.102Z,22.80
2017-12-20T08:17:04.887Z,21.50
2017-12-20T08:18:10.625Z,22.30
2017-12-20T08:19:16.373Z,24.10
2017-12-20T08:20:22.885Z,23.55
2017-12-20T08:21:28.626Z,22.48
2017-12-20T08:22:34.433Z,21.15
2017-12-20T08:23:40.365Z,21.77
2017-12-20T08:24:46.129Z,22.02
2017-12-20T08:25:52.628Z,21.90
2017-12-20T08:26:58.031Z,21.98
2017-12-20T08:28:03.797Z,21.85
2017-12-20T08:29:09.582Z,22.37
2017-12-20T08:30:15.313Z,21.05
2017-12-20T08:31:21.041Z,20.80
2017-12-20T08:32:26.792Z,19.92
2017-12-20T08:33:32.558Z,21.00
2017-12-20T08:34:38.311Z,20.62
2017-12-20T08:35:44.060Z,21.42
2017-12-20T08:36:50.576Z,21.85
2017-12-20T08:37:56.323Z,20.90
2017-12-20T08:39:02.107Z,20.00
2017-12-20T08:40:08.620Z,19.92
2017-12-20T08:41:14.349Z,21.37
2017-12-20T08:42:20.085Z,19.95
2017-12-20T08:43:25.848Z,20.75
2017-12-20T08:44:31.620Z,20.20
2017-12-20T08:45:38.116Z,19.52
2017-12-20T08:46:43.896Z,20.92
2017-12-20T08:47:49.630Z,18.27
2017-12-20T08:48:55.383Z,19.75
2017-12-20T08:50:01.145Z,19.40
2017-12-20T08:51:07.525Z,19.77
2017-12-20T08:52:13.280Z,20.08
2017-12-20T08:53:19.024Z,20.12
2017-12-20T08:54:24.760Z,19.52
2017-12-20T08:55:30.366Z,18.33
2017-12-20T08:56:36.883Z,18.30
2017-12-20T08:57:42.615Z,20.08
2017-12-20T08:58:48.344Z,17.15
2017-12-20T08:59:54.073Z,18.40
2017-12-20T09:01:00.683Z,17.80
2017-12-20T09:02:06.408Z,18.27
2017-12-20T09:03:12.145Z,19.27
2017-12-20T09:04:17.889Z,18.35
2017-12-20T09:05:23.647Z,19.62
2017-12-20T09:06:29.412Z,17.80
2017-12-20T09:07:35.153Z,18.08
2017-12-20T09:08:40.914Z,17.92
2017-12-20T09:09:46.647Z,17.02
2017-12-20T09:10:53.146Z,17.50
2017-12-20T09:11:58.919Z,19.05
2017-12-20T09:13:04.650Z,18.05
2017-12-20T09:14:10.054Z,16.25
2017-12-20T09:15:15.826Z,16.55
2017-12-20T09:16:21.574Z,17.23
2017-12-20T09:17:27.335Z,16.80
2017-12-20T09:18:33.843Z,17.85
2017-12-20T09:19:39.601Z,16.40
2017-12-20T09:20:45.431Z,17.42
2017-12-20T09:21:51.187Z,16.65
2017-12-20T09:22:56.975Z,15.75
2017-12-20T09:24:03.656Z,17.15
2017-12-20T09:25:09.204Z,16.17
2017-12-20T09:26:15.154Z,16.75
2017-12-20T09:27:20.982Z,17.23
2017-12-20T09:28:27.373Z,15.65
2017-12-20T09:29:33.488Z,16.20
2017-12-20T09:30:39.436Z,27.80
2017-12-20T09:31:45.442Z,16.62
2017-12-20T09:32:52.271Z,16.55
2017-12-20T09:33:58.171Z,19.95
2017-12-20T09:35:04.431Z,15.20
2017-12-20T09:36:10.953Z,18.77
2017-12-20T09:37:16.762Z,15.95
2017-12-20T09:38:22.551Z,16.73
2017-12-20T09:39:29.013Z,16.30
2017-12-20T09:40:34.796Z,17.35
2017-12-20T09:41:40.530Z,17.67
2017-12-20T09:42:46.328Z,16.87
2017-12-20T09:43:52.767Z,15.90
2017-12-20T09:44:58.634Z,15.77
2017-12-20T09:46:04.419Z,20.23
2017-12-20T09:47:10.592Z,15.35
2017-12-20T09:48:16.386Z,17.62
2017-12-20T09:49:22.966Z,16.85
2017-12-20T09:50:28.744Z,17.73
2017-12-20T09:51:34.554Z,15.98
2017-12-20T09:52:40.317Z,16.90
2017-12-20T09:53:46.135Z,14.35
2017-12-20T09:54:51.912Z,16.87
2017-12-20T09:55:57.665Z,15.05
2017-12-20T09:57:03.484Z,15.65
2017-12-20T09:58:09.252Z,15.00
2017-12-20T09:59:15.728Z,15.23
2017-12-20T10:00:21.508Z,15.25
2017-12-20T10:01:28.179Z,17.02
2017-12-20T10:02:34.675Z,16.05
2017-12-20T10:03:40.451Z,16.02
2017-12-20T10:04:46.286Z,16.20
2017-12-20T10:05:52.138Z,15.85
2017-12-20T10:06:57.966Z,15.77
2017-12-20T10:08:03.873Z,14.85
2017-12-20T10:09:09.652Z,15.77
2017-12-20T10:10:15.468Z,14.68
2017-12-20T10:11:21.137Z,14.80
2017-12-20T10:12:27.658Z,18.10
2017-12-20T10:13:33.425Z,13.82
2017-12-20T10:14:39.165Z,13.52
2017-12-20T10:15:44.948Z,15.65
2017-12-20T10:16:51.146Z,14.87
2017-12-20T10:17:56.963Z,15.23
2017-12-20T10:19:02.365Z,13.85
2017-12-20T10:20:08.103Z,14.75
2017-12-20T10:21:13.261Z,15.50
2017-12-20T10:22:19.001Z,17.58
2017-12-20T10:23:24.782Z,14.90
2017-12-20T10:24:30.533Z,16.00
2017-12-20T10:25:36.268Z,14.50
2017-12-20T10:26:42.476Z,13.23
2017-12-20T10:27:48.451Z,14.70
2017-12-20T10:28:54.244Z,12.82
2017-12-20T10:29:59.716Z,14.77
2017-12-20T10:31:05.536Z,14.43
2017-12-20T10:32:12.686Z,17.17
2017-12-20T10:33:18.646Z,14.63
2017-12-20T10:34:24.834Z,20.30
2017-12-20T10:35:30.620Z,13.70
2017-12-20T10:36:36.379Z,14.75
2017-12-20T10:37:42.183Z,14.70
2017-12-20T10:38:48.018Z,14.50
2017-12-20T10:39:53.820Z,14.50
2017-12-20T10:41:00.341Z,14.57
2017-12-20T10:42:06.344Z,15.90
2017-12-20T10:43:12.248Z,13.62
2017-12-20T10:44:18.047Z,13.62
2017-12-20T10:45:23.921Z,13.95
2017-12-20T10:46:29.760Z,13.40
2017-12-20T10:47:35.518Z,14.48
2017-12-20T10:48:41.359Z,15.88
2017-12-20T10:49:47.147Z,13.10
2017-12-20T10:50:52.918Z,13.60
2017-12-20T10:51:58.661Z,14.63
2017-12-20T10:53:04.207Z,15.35
2017-12-20T10:54:09.963Z,14.52
2017-12-20T10:55:15.702Z,14.98
2017-12-20T10:56:21.477Z,16.08
2017-12-20T10:57:28.013Z,15.60
2017-12-20T10:58:33.780Z,15.02
2017-12-20T10:59:40.304Z,16.45
2017-12-20T11:00:46.065Z,15.80
2017-12-20T11:01:52.593Z,14.70
2017-12-20T11:02:58.351Z,15.60
2017-12-20T11:04:04.088Z,14.60
2017-12-20T11:05:09.846Z,14.43
2017-12-20T11:06:16.413Z,14.38
2017-12-20T11:07:22.953Z,14.70
2017-12-20T11:08:28.709Z,13.95
2017-12-20T11:09:35.227Z,14.40
2017-12-20T11:10:40.970Z,14.38
2017-12-20T11:11:46.732Z,15.23
2017-12-20T11:12:52.520Z,16.12
2017-12-20T11:13:58.013Z,14.77
2017-12-20T11:15:03.769Z,15.20
2017-12-20T11:16:09.191Z,15.00
2017-12-20T11:17:14.942Z,16.45
2017-12-20T11:18:21.284Z,13.55
2017-12-20T11:19:27.102Z,14.70
2017-12-20T11:20:32.317Z,13.90
2017-12-20T11:21:38.707Z,16.73
2017-12-20T11:22:43.802Z,14.02
2017-12-20T11:23:49.380Z,15.00
2017-12-20T11:24:55.147Z,17.15
2017-12-20T11:26:01.340Z,16.62
2017-12-20T11:27:06.446Z,15.32
2017-12-20T11:28:11.541Z,15.68
2017-12-20T11:29:18.068Z,16.30
2017-12-20T11:30:23.952Z,15.35
2017-12-20T11:31:30.199Z,16.40
2017-12-20T11:32:37.003Z,16.58
2017-12-20T11:33:42.766Z,15.68
2017-12-20T11:34:48.541Z,16.27
2017-12-20T11:35:54.340Z,15.60
2017-12-20T11:37:01.142Z,16.77
2017-12-20T11:38:07.680Z,16.87
2017-12-20T11:39:14.636Z,17.08
2017-12-20T11:40:20.554Z,17.43
2017-12-20T11:41:26.527Z,17.08
2017-12-20T11:42:32.494Z,16.20
2017-12-20T11:43:38.339Z,17.08
2017-12-20T11:44:44.111Z,17.23
2017-12-20T11:45:50.633Z,17.23
2017-12-20T11:46:56.408Z,16.37
2017-12-20T11:48:02.936Z,16.25
2017-12-20T11:49:08.680Z,16.17
2017-12-20T11:50:14.411Z,15.68
2017-12-20T11:51:20.173Z,16.80
2017-12-20T11:52:25.922Z,15.80
2017-12-20T11:53:31.696Z,15.02
2017-12-20T11:54:37.431Z,16.55
2017-12-20T11:55:43.953Z,16.10
2017-12-20T11:56:49.716Z,17.55
2017-12-20T11:57:55.443Z,18.27
2017-12-20T11:59:01.195Z,17.52
2017-12-20T12:00:06.883Z,15.68
2017-12-20T12:01:12.784Z,15.10
2017-12-20T12:02:19.334Z,16.30
2017-12-20T12:03:25.875Z,17.40
2017-12-20T12:04:31.622Z,18.42
2017-12-20T12:05:38.147Z,14.85
2017-12-20T12:06:43.967Z,15.82
2017-12-20T12:07:49.773Z,16.12
2017-12-20T12:08:55.512Z,19.00
2017-12-20T12:10:01.275Z,16.58
2017-12-20T12:11:07.787Z,17.15
2017-12-20T12:12:13.565Z,15.60
2017-12-20T12:13:19.357Z,14.75
2017-12-20T12:14:25.097Z,16.80
2017-12-20T12:15:30.853Z,16.20
2017-12-20T12:16:36.727Z,15.50
2017-12-20T12:17:42.489Z,14.43
2017-12-20T12:18:49.017Z,15.10
2017-12-20T12:19:54.757Z,15.10
2017-12-20T12:21:00.507Z,14.65
2017-12-20T12:22:06.263Z,15.65
2017-12-20T12:23:12.791Z,15.55
2017-12-20T12:24:18.552Z,15.70
2017-12-20T12:25:25.061Z,15.88
2017-12-20T12:26:31.679Z,16.30
2017-12-20T12:27:38.206Z,14.27
2017-12-20T12:28:43.969Z,15.23
2017-12-20T12:29:50.546Z,15.00
2017-12-20T12:30:56.063Z,15.10
2017-12-20T12:32:01.831Z,15.18
2017-12-20T12:33:08.385Z,15.70
2017-12-20T12:34:15.093Z,14.02
2017-12-20T12:35:20.576Z,14.40
2017-12-20T12:36:26.000Z,15.23
2017-12-20T12:37:32.349Z,16.08
2017-12-20T12:38:38.088Z,14.95
2017-12-20T12:39:44.105Z,15.45
2017-12-20T12:40:50.291Z,15.65
2017-12-20T12:41:56.037Z,15.43
2017-12-20T12:43:01.857Z,16.52
2017-12-20T12:44:07.921Z,14.20
2017-12-20T12:45:13.699Z,14.65
2017-12-20T12:46:20.344Z,14.85
2017-12-20T12:47:27.649Z,15.77
2017-12-20T12:48:34.444Z,14.70
2017-12-20T12:49:40.644Z,14.57
2017-12-20T12:50:46.801Z,14.00
2017-12-20T12:51:52.786Z,14.52
2017-12-20T12:52:59.577Z,13.07
2017-12-20T12:54:05.699Z,13.27
2017-12-20T12:55:12.460Z,14.13
2017-12-20T12:56:18.201Z,14.02
2017-12-20T12:57:24.089Z,13.82
2017-12-20T12:58:29.898Z,14.63
2017-12-20T12:59:35.711Z,11.60
2017-12-20T13:00:41.496Z,11.23
2017-12-20T13:01:47.266Z,10.75
2017-12-20T13:02:53.238Z,11.48
2017-12-20T13:03:59.051Z,11.02
2017-12-20T13:05:05.035Z,12.02
2017-12-20T13:06:12.261Z,12.68
2017-12-20T13:07:19.082Z,12.37
2017-12-20T13:08:25.575Z,11.82
2017-12-20T13:09:31.572Z,11.45
2017-12-20T13:10:37.510Z,10.40
2017-12-20T13:11:43.250Z,9.18
2017-12-20T13:12:49.989Z,10.30
2017-12-20T13:13:56.607Z,9.00
2017-12-20T13:15:04.155Z,10.10
2017-12-20T13:16:09.985Z,12.00
2017-12-20T13:17:16.912Z,11.20
2017-12-20T13:18:22.882Z,12.05
2017-12-20T13:19:30.554Z,11.70
2017-12-20T13:20:38.944Z,12.23
2017-12-20T13:21:45.637Z,12.02
2017-12-20T13:22:52.311Z,11.40
2017-12-20T13:23:58.140Z,12.20
2017-12-20T13:25:05.128Z,10.50
2017-12-20T13:26:11.066Z,10.77
2017-12-20T13:27:17.568Z,9.80
2017-12-20T13:28:23.139Z,9.73
2017-12-20T13:29:30.052Z,11.50
2017-12-20T13:30:36.181Z,10.32
2017-12-20T13:31:42.776Z,10.70
2017-12-20T13:32:48.649Z,11.80
2017-12-20T13:33:56.849Z,12.55
2017-12-20T13:35:02.866Z,10.93
2017-12-20T13:36:09.001Z,12.02
2017-12-20T13:37:14.771Z,10.25
2017-12-20T13:38:21.609Z,11.80
2017-12-20T13:39:28.683Z,13.35
2017-12-20T13:40:35.270Z,11.90
2017-12-20T13:41:41.395Z,11.23
2017-12-20T13:42:48.032Z,10.30
2017-12-20T13:43:56.003Z,10.88
2017-12-20T13:45:02.730Z,10.65
2017-12-20T13:46:08.465Z,10.70
2017-12-20T13:47:14.003Z,10.63
2017-12-20T13:48:20.667Z,13.27
2017-12-20T13:49:26.847Z,12.25
2017-12-20T13:50:35.251Z,11.12
2017-12-20T13:51:42.650Z,11.73
2017-12-20T13:52:48.738Z,11.38
2017-12-20T13:53:54.744Z,11.88
2017-12-20T13:55:00.810Z,11.63
2017-12-20T13:56:06.984Z,13.23
2017-12-20T13:57:13.582Z,12.02
2017-12-20T13:58:19.680Z,12.00
2017-12-20T13:59:25.484Z,10.95
2017-12-20T14:00:30.848Z,11.50
2017-12-20T14:01:37.728Z,11.93
2017-12-20T14:02:43.692Z,11.48
2017-12-20T14:03:49.704Z,12.50
2017-12-20T14:04:55.684Z,12.27
2017-12-20T14:06:01.727Z,11.20
2017-12-20T14:07:07.714Z,11.93
2017-12-20T14:08:13.747Z,11.82
2017-12-20T14:09:19.839Z,10.40
2017-12-20T14:10:25.852Z,11.20